createdAt,value
2023-02-25T00:00:31.497Z,-12.56
2023-02-25T00:03:36.667Z,-12.16
2023-02-25T00:06:40.717Z,-11.64
2023-02-25T00:09:45.122Z,-11.56
2023-02-25T00:12:49.493Z,-11.02
2023-02-25T00:15:53.850Z,-10.71
2023-02-25T00:18:58.998Z,-11.03
2023-02-25T00:22:02.858Z,-10.68
2023-02-25T00:25:07.832Z,-10.18
2023-02-25T00:28:12.212Z,-9.40
2023-02-25T00:31:43.293Z,-7.96
2023-02-25T00:34:53.390Z,-7.27
2023-02-25T00:38:13.700Z,-6.99
2023-02-25T00:41:23.224Z,-6.21
2023-02-25T00:44:27.546Z,-5.82
2023-02-25T00:47:32.382Z,-5.09
2023-02-25T00:50:40.452Z,-4.65
2023-02-25T00:53:45.944Z,-5.52
2023-02-25T00:56:50.287Z,-4.85
2023-02-25T00:59:54.191Z,-4.07
2023-02-25T01:02:59.963Z,-3.38
2023-02-25T01:06:04.449Z,-3.60
2023-02-25T01:09:14.842Z,-3.00
2023-02-25T01:12:19.215Z,-2.95
2023-02-25T01:15:23.265Z,-2.44
2023-02-25T01:18:28.366Z,-1.80
2023-02-25T01:21:36.923Z,-1.39
2023-02-25T01:24:41.209Z,-1.75
2023-02-25T01:27:47.695Z,-1.62
2023-02-25T01:30:52.104Z,-0.91
2023-02-25T01:34:04.132Z,-0.39
2023-02-25T01:37:17.973Z,-0.97
2023-02-25T01:40:27.790Z,-0.80
2023-02-25T01:43:32.344Z,-0.15
2023-02-25T01:46:38.347Z,-0.05
2023-02-25T01:49:47.419Z,-0.15
2023-02-25T01:52:52.459Z,0.17
2023-02-25T01:55:57.761Z,0.16
2023-02-25T01:59:02.610Z,-0.06
2023-02-25T02:02:09.406Z,-0.01
2023-02-25T02:05:14.200Z,-0.50
2023-02-25T02:08:19.096Z,-1.30
2023-02-25T02:11:23.466Z,-1.38
2023-02-25T02:14:35.607Z,-1.06
2023-02-25T02:18:00.561Z,-1.43
2023-02-25T02:21:18.752Z,-1.43
2023-02-25T02:24:33.822Z,-0.95
2023-02-25T02:28:03.216Z,-1.47
2023-02-25T02:31:10.530Z,-1.62
2023-02-25T02:34:41.632Z,-1.62
2023-02-25T02:37:56.629Z,-2.09
2023-02-25T02:41:37.745Z,-2.54
2023-02-25T02:44:57.179Z,-3.35
2023-02-25T02:48:37.599Z,-2.74
2023-02-25T02:51:50.973Z,-2.63
2023-02-25T02:55:03.414Z,-3.56
2023-02-25T02:58:14.435Z,-3.87
2023-02-25T03:01:28.150Z,-4.23
2023-02-25T03:04:36.916Z,-3.99
2023-02-25T03:07:52.330Z,-3.31
2023-02-25T03:10:56.871Z,-3.87
2023-02-25T03:14:01.664Z,-4.74
2023-02-25T03:17:13.203Z,-4.26
2023-02-25T03:20:25.335Z,-4.66
2023-02-25T03:23:33.610Z,-4.43
2023-02-25T03:26:39.505Z,-3.85
2023-02-25T03:29:44.084Z,-4.28
2023-02-25T03:33:00.635Z,-4.14
2023-02-25T03:36:14.218Z,-3.81
2023-02-25T03:39:22.043Z,-4.94
2023-02-25T03:42:36.213Z,-4.30
2023-02-25T03:45:46.277Z,-3.86
2023-02-25T03:48:53.703Z,-4.17
2023-02-25T03:52:01.271Z,-4.55
2023-02-25T03:55:07.275Z,-4.15
2023-02-25T03:58:11.935Z,-3.82
2023-02-25T04:01:31.488Z,-3.80
2023-02-25T04:04:36.218Z,-4.29
2023-02-25T04:07:41.042Z,-4.14
2023-02-25T04:10:45.629Z,-4.11
2023-02-25T04:13:51.561Z,-4.38
2023-02-25T04:16:56.764Z,-4.09
2023-02-25T04:20:01.212Z,-3.99
2023-02-25T04:23:06.913Z,-3.92
2023-02-25T04:26:11.299Z,-3.78
2023-02-25T04:29:16.330Z,-3.79
2023-02-25T04:32:20.601Z,-3.64
2023-02-25T04:35:25.659Z,-3.29
2023-02-25T04:38:30.169Z,-3.94
2023-02-25T04:41:36.975Z,-4.04
2023-02-25T04:44:51.485Z,-3.55
2023-02-25T04:48:00.173Z,-3.58
2023-02-25T04:51:05.017Z,-3.46
2023-02-25T04:54:09.635Z,-2.92
2023-02-25T04:57:14.051Z,-3.22
2023-02-25T05:00:21.594Z,-3.15
2023-02-25T05:03:26.596Z,-3.07
2023-02-25T05:06:31.540Z,-3.47
2023-02-25T05:09:36.031Z,-3.43
2023-02-25T05:12:40.401Z,-3.08
2023-02-25T05:15:45.246Z,-2.66
2023-02-25T05:18:50.384Z,-2.67
2023-02-25T05:21:55.682Z,-2.85
2023-02-25T05:25:00.037Z,-2.58
2023-02-25T05:28:07.296Z,-2.80
2023-02-25T05:31:13.708Z,-3.30
2023-02-25T05:34:18.997Z,-3.36
2023-02-25T05:37:25.086Z,-3.95
2023-02-25T05:40:29.402Z,-3.79
2023-02-25T05:43:34.801Z,-3.94
2023-02-25T05:46:39.478Z,-3.94
2023-02-25T05:49:44.473Z,-3.75
2023-02-25T05:52:49.126Z,-4.08
2023-02-25T05:55:53.723Z,-3.70
2023-02-25T05:58:58.366Z,-4.18
2023-02-25T06:02:02.586Z,-3.99
2023-02-25T06:05:07.651Z,-4.07
2023-02-25T06:08:12.992Z,-3.83
2023-02-25T06:11:25.880Z,-4.02
2023-02-25T06:14:30.179Z,-4.63
2023-02-25T06:17:34.960Z,-4.20
2023-02-25T06:20:39.120Z,-3.86
2023-02-25T06:23:45.160Z,-4.36
2023-02-25T06:26:49.424Z,-4.19
2023-02-25T06:29:53.534Z,-4.74
2023-02-25T06:32:57.566Z,-4.18
2023-02-25T06:36:02.128Z,-3.98
2023-02-25T06:39:06.493Z,-4.02
2023-02-25T06:42:11.754Z,-4.36
2023-02-25T06:45:16.996Z,-4.37
2023-02-25T06:48:21.573Z,-4.32
2023-02-25T06:51:26.707Z,-4.07
2023-02-25T06:54:31.144Z,-4.28
2023-02-25T06:57:36.172Z,-4.26
2023-02-25T07:00:43.941Z,-4.16
2023-02-25T07:03:48.316Z,-4.60
2023-02-25T07:06:52.560Z,-4.79
2023-02-25T07:09:56.848Z,-4.42
2023-02-25T07:13:00.870Z,-4.43
2023-02-25T07:16:04.907Z,-4.36
2023-02-25T07:19:09.574Z,-4.14
2023-02-25T07:22:18.150Z,-4.47
2023-02-25T07:25:22.701Z,-4.64
2023-02-25T07:28:26.988Z,-4.61
2023-02-25T07:31:31.534Z,-4.40
2023-02-25T07:34:39.970Z,-4.37
2023-02-25T07:37:44.344Z,-4.74
2023-02-25T07:40:49.399Z,-4.65
2023-02-25T07:43:53.573Z,-5.01
2023-02-25T07:46:59.531Z,-4.80
2023-02-25T07:50:04.254Z,-4.88
2023-02-25T07:53:08.589Z,-4.66
2023-02-25T07:56:13.655Z,-4.82
2023-02-25T07:59:18.090Z,-4.69
2023-02-25T08:02:22.560Z,-4.99
2023-02-25T08:05:30.082Z,-4.66
2023-02-25T08:08:35.945Z,-4.85
2023-02-25T08:11:43.154Z,-5.62
2023-02-25T08:14:47.568Z,-5.44
2023-02-25T08:17:53.319Z,-5.62
2023-02-25T08:21:00.790Z,-5.97
2023-02-25T08:24:06.962Z,-5.46
2023-02-25T08:27:11.503Z,-5.64
2023-02-25T08:30:16.196Z,-5.73
2023-02-25T08:33:21.100Z,-5.53
2023-02-25T08:36:32.078Z,-5.62
2023-02-25T08:39:36.777Z,-5.78
2023-02-25T08:42:40.580Z,-5.87
2023-02-25T08:45:44.575Z,-5.71
2023-02-25T08:48:51.243Z,-5.98
2023-02-25T08:51:55.788Z,-6.45
2023-02-25T08:55:03.314Z,-6.43
2023-02-25T08:58:08.526Z,-6.76
2023-02-25T09:01:17.614Z,-6.63
2023-02-25T09:04:24.597Z,-6.66
2023-02-25T09:07:28.627Z,-6.74
2023-02-25T09:10:48.207Z,-6.84
2023-02-25T09:13:54.993Z,-6.88
2023-02-25T09:16:59.856Z,-7.04
2023-02-25T09:20:08.030Z,-7.15
2023-02-25T09:23:12.621Z,-7.24
2023-02-25T09:26:18.266Z,-7.21
2023-02-25T09:29:23.204Z,-7.24
2023-02-25T09:32:27.420Z,-7.50
2023-02-25T09:35:32.599Z,-7.61
2023-02-25T09:38:37.952Z,-7.66
2023-02-25T09:41:46.088Z,-7.87
2023-02-25T09:45:02.125Z,-8.07
2023-02-25T09:48:17.329Z,-8.10
2023-02-25T09:51:35.539Z,-8.10
2023-02-25T09:54:45.815Z,-8.25
2023-02-25T09:58:05.277Z,-8.27
2023-02-25T10:01:14.017Z,-7.94
2023-02-25T10:04:28.477Z,-8.03
2023-02-25T10:07:54.062Z,-8.29
2023-02-25T10:11:03.039Z,-8.18
2023-02-25T10:14:39.433Z,-8.27
2023-02-25T10:17:56.284Z,-8.46
2023-02-25T10:21:25.509Z,-8.72
2023-02-25T10:24:49.638Z,-9.47
2023-02-25T10:28:08.772Z,-9.44
2023-02-25T10:31:19.677Z,-9.46
2023-02-25T10:34:28.206Z,-9.73
2023-02-25T10:37:35.903Z,-9.23
2023-02-25T10:40:42.015Z,-9.10
2023-02-25T10:43:47.809Z,-9.21
2023-02-25T10:46:56.946Z,-9.16
2023-02-25T10:50:38.832Z,-9.70
2023-02-25T10:54:07.283Z,-9.97
2023-02-25T10:57:17.917Z,-9.80
2023-02-25T11:00:28.764Z,-10.06
2023-02-25T11:03:37.826Z,-10.23
2023-02-25T11:07:24.321Z,-12.03
2023-02-25T11:10:35.949Z,-10.11
2023-02-25T11:14:19.673Z,-10.07
2023-02-25T11:17:24.413Z,-10.41
2023-02-25T11:20:33.165Z,-10.51
2023-02-25T11:23:47.961Z,-10.77
2023-02-25T11:26:53.819Z,-10.80
2023-02-25T11:30:13.873Z,-10.72
2023-02-25T11:33:45.755Z,-10.26
2023-02-25T11:36:51.279Z,-10.17
2023-02-25T11:39:56.937Z,-10.25
2023-02-25T11:43:28.607Z,-10.50
2023-02-25T11:46:34.843Z,-10.57
2023-02-25T11:49:54.348Z,-10.52
2023-02-25T11:53:23.012Z,-10.56
2023-02-25T11:56:35.042Z,-10.61
2023-02-25T12:00:23.878Z,-10.71
2023-02-25T12:03:47.566Z,-10.52
2023-02-25T12:07:25.671Z,-10.43
2023-02-25T12:10:33.089Z,-10.59
2023-02-25T12:14:20.665Z,-10.89
2023-02-25T12:17:49.246Z,-11.04
2023-02-25T12:20:56.694Z,-11.15
2023-02-25T12:24:26.350Z,-10.94
2023-02-25T12:28:02.968Z,-11.00
2023-02-25T12:31:45.108Z,-10.98
2023-02-25T12:35:08.159Z,-11.31
2023-02-25T12:38:37.801Z,-11.25
2023-02-25T12:41:47.462Z,-11.20
2023-02-25T12:45:21.654Z,-11.45
2023-02-25T12:48:57.011Z,-11.65
2023-02-25T12:52:19.361Z,-11.95
2023-02-25T12:55:23.987Z,-11.89
2023-02-25T12:58:41.093Z,-11.73
2023-02-25T13:02:04.586Z,-11.47
2023-02-25T13:05:30.701Z,-11.43
2023-02-25T13:08:53.824Z,-11.29
2023-02-25T13:12:15.096Z,-11.37
2023-02-25T13:15:44.047Z,-11.45
2023-02-25T13:18:57.382Z,-11.74
2023-02-25T13:22:25.265Z,-11.99
2023-02-25T13:25:47.790Z,-11.69
2023-02-25T13:28:58.555Z,-11.61
2023-02-25T13:32:17.881Z,-11.71
2023-02-25T13:35:43.489Z,-11.44
2023-02-25T13:39:02.410Z,-12.09
2023-02-25T13:42:12.119Z,-12.25
2023-02-25T13:45:40.601Z,-12.09
2023-02-25T13:48:59.875Z,-12.38
2023-02-25T13:52:39.004Z,-12.13
2023-02-25T13:56:24.818Z,-11.93
2023-02-25T13:59:56.927Z,-11.97
2023-02-25T14:03:22.458Z,-11.95
2023-02-25T14:06:48.399Z,-12.16
2023-02-25T14:10:16.956Z,-12.48
2023-02-25T14:13:42.586Z,-11.95
2023-02-25T14:16:57.514Z,-12.01
2023-02-25T14:20:23.316Z,-12.54
2023-02-25T14:23:42.612Z,-12.70
2023-02-25T14:27:21.577Z,-13.20
2023-02-25T14:30:25.930Z,-13.16
2023-02-25T14:33:38.429Z,-13.11
2023-02-25T14:36:48.446Z,-13.14
2023-02-25T14:40:27.058Z,-12.92
2023-02-25T14:43:36.501Z,-12.74
2023-02-25T14:46:44.169Z,-12.45
2023-02-25T14:50:00.888Z,-12.43
2023-02-25T14:53:27.729Z,-12.86
2023-02-25T14:56:58.651Z,-12.73
2023-02-25T15:00:24.398Z,-12.58
2023-02-25T15:03:31.994Z,-13.00
2023-02-25T15:06:54.301Z,-13.33
2023-02-25T15:10:19.877Z,-13.43
2023-02-25T15:13:55.372Z,-13.61
2023-02-25T15:17:47.283Z,-13.71
2023-02-25T15:20:51.823Z,-13.69
2023-02-25T15:23:56.242Z,-13.69
2023-02-25T15:27:01.428Z,-13.71
2023-02-25T15:30:09.336Z,-13.75
2023-02-25T15:33:27.464Z,-13.82
2023-02-25T15:36:50.750Z,-14.33
2023-02-25T15:39:58.216Z,-14.66
2023-02-25T15:43:27.267Z,-14.89
2023-02-25T15:46:37.569Z,-14.96
2023-02-25T15:49:47.562Z,-15.14
2023-02-25T15:52:58.534Z,-15.12
2023-02-25T15:56:05.803Z,-14.96
2023-02-25T15:59:10.316Z,-14.92
2023-02-25T16:02:34.249Z,-14.94
2023-02-25T16:05:48.163Z,-15.00
2023-02-25T16:09:11.656Z,-14.78
2023-02-25T16:12:17.543Z,-14.90
2023-02-25T16:15:39.665Z,-14.85
2023-02-25T16:18:51.044Z,-14.68
2023-02-25T16:22:09.077Z,-14.74
2023-02-25T16:25:19.971Z,-14.64
2023-02-25T16:29:07.939Z,-14.67
2023-02-25T16:32:39.413Z,-14.67
2023-02-25T16:36:06.899Z,-14.50
2023-02-25T16:39:24.559Z,-14.51
2023-02-25T16:42:34.080Z,-14.54
2023-02-25T16:46:01.765Z,-14.72
2023-02-25T16:49:24.713Z,-15.03
2023-02-25T16:52:36.976Z,-15.16
2023-02-25T16:55:42.106Z,-14.94
2023-02-25T16:59:04.694Z,-14.79
2023-02-25T17:02:17.999Z,-14.64
2023-02-25T17:05:37.332Z,-14.82
2023-02-25T17:08:47.664Z,-15.09
2023-02-25T17:11:56.891Z,-15.13
2023-02-25T17:15:05.344Z,-15.36
2023-02-25T17:18:56.800Z,-15.14
2023-02-25T17:22:02.376Z,-15.27
2023-02-25T17:25:16.823Z,-14.96
2023-02-25T17:28:28.005Z,-14.67
2023-02-25T17:31:32.286Z,-15.11
2023-02-25T17:34:37.826Z,-15.30
2023-02-25T17:38:16.387Z,-15.23
2023-02-25T17:41:28.075Z,-15.28
2023-02-25T17:44:43.304Z,-15.26
2023-02-25T17:47:47.994Z,-15.39
2023-02-25T17:51:08.630Z,-15.52
2023-02-25T17:54:21.034Z,-15.79
2023-02-25T17:57:29.005Z,-15.71
2023-02-25T18:00:37.048Z,-15.47
2023-02-25T18:03:47.375Z,-15.42
2023-02-25T18:06:52.235Z,-15.45
2023-02-25T18:09:58.142Z,-15.14
2023-02-25T18:13:05.612Z,-15.44
2023-02-25T18:16:42.500Z,-15.53
2023-02-25T18:19:47.132Z,-15.37
2023-02-25T18:22:51.455Z,-15.37
2023-02-25T18:26:31.618Z,-15.35
2023-02-25T18:29:35.978Z,-15.37
2023-02-25T18:32:40.399Z,-15.43
2023-02-25T18:35:47.550Z,-15.33
2023-02-25T18:38:53.968Z,-16.09
2023-02-25T18:45:24.761Z,-15.82
2023-02-25T18:48:28.641Z,-16.10
2023-02-25T18:51:33.334Z,-15.90
2023-02-25T18:54:37.618Z,-15.68
2023-02-25T18:57:41.993Z,-15.69
2023-02-25T19:00:49.253Z,-16.42
2023-02-25T19:04:00.255Z,-16.64
2023-02-25T19:07:11.735Z,-16.44
2023-02-25T19:10:27.608Z,-16.47
2023-02-25T19:13:36.364Z,-16.35
2023-02-25T19:16:41.189Z,-16.44
2023-02-25T19:19:47.201Z,-16.50
2023-02-25T19:22:54.060Z,-16.10
2023-02-25T19:26:01.617Z,-16.03
2023-02-25T19:29:06.320Z,-16.64
2023-02-25T19:32:10.714Z,-16.44
2023-02-25T19:35:15.051Z,-16.65
2023-02-25T19:38:20.806Z,-16.50
2023-02-25T19:41:25.369Z,-16.34
2023-02-25T19:44:29.639Z,-16.42
2023-02-25T19:47:44.077Z,-16.62
2023-02-25T19:50:48.310Z,-16.47
2023-02-25T19:53:52.962Z,-16.58
2023-02-25T19:56:57.240Z,-16.53
2023-02-25T20:00:01.571Z,-16.97
2023-02-25T20:03:16.445Z,-17.46
2023-02-25T20:06:23.881Z,-17.38
2023-02-25T20:09:28.380Z,-17.16
2023-02-25T20:12:32.496Z,-17.16
2023-02-25T20:15:36.228Z,-16.87
2023-02-25T20:18:41.588Z,-16.85
2023-02-25T20:21:45.873Z,-16.82
2023-02-25T20:24:50.327Z,-17.28
2023-02-25T20:27:54.699Z,-17.24
2023-02-25T20:31:07.412Z,-16.93
2023-02-25T20:34:18.738Z,-17.18
2023-02-25T20:37:30.302Z,-17.33
2023-02-25T20:40:34.645Z,-17.49
2023-02-25T20:43:39.251Z,-17.54
2023-02-25T20:46:44.984Z,-17.52
2023-02-25T20:49:50.190Z,-17.41
2023-02-25T20:52:55.566Z,-17.85
2023-02-25T20:56:00.520Z,-17.96
2023-02-25T20:59:05.882Z,-17.73
2023-02-25T21:02:11.055Z,-17.89
2023-02-25T21:05:15.484Z,-17.81
2023-02-25T21:08:20.100Z,-17.85
2023-02-25T21:11:25.666Z,-17.59
2023-02-25T21:14:32.007Z,-17.56
2023-02-25T21:17:36.288Z,-17.27
2023-02-25T21:20:40.877Z,-17.82
2023-02-25T21:23:45.671Z,-18.09
2023-02-25T21:26:50.080Z,-18.35
2023-02-25T21:29:54.089Z,-17.88
2023-02-25T21:32:59.500Z,-18.21
2023-02-25T21:36:04.487Z,-18.23
2023-02-25T21:39:10.087Z,-18.12
2023-02-25T21:42:14.021Z,-18.06
2023-02-25T21:45:18.559Z,-18.10
2023-02-25T21:48:24.910Z,-18.25
2023-02-25T21:51:30.802Z,-18.13
2023-02-25T21:54:35.571Z,-18.10
2023-02-25T21:57:40.449Z,-18.30
2023-02-25T22:00:49.319Z,-18.51
2023-02-25T22:03:57.117Z,-18.39
2023-02-25T22:07:01.012Z,-18.03
2023-02-25T22:10:05.311Z,-18.00
2023-02-25T22:13:10.047Z,-17.93
2023-02-25T22:16:15.905Z,-18.05
2023-02-25T22:19:20.113Z,-17.90
2023-02-25T22:22:24.329Z,-17.96
2023-02-25T22:25:28.953Z,-17.79
2023-02-25T22:28:34.007Z,-17.52
2023-02-25T22:31:38.799Z,-17.46
2023-02-25T22:34:43.215Z,-17.51
2023-02-25T22:37:47.668Z,-17.82
2023-02-25T22:40:52.358Z,-17.86
2023-02-25T22:43:57.982Z,-17.95
2023-02-25T22:47:02.587Z,-17.82
2023-02-25T22:50:07.641Z,-17.68
2023-02-25T22:53:12.315Z,-17.59
2023-02-25T22:56:16.949Z,-16.85
2023-02-25T22:59:21.194Z,-16.46
2023-02-25T23:02:28.022Z,-16.39
2023-02-25T23:05:33.083Z,-15.58
2023-02-25T23:08:37.663Z,-14.19
2023-02-25T23:11:44.505Z,-12.11
2023-02-25T23:14:49.168Z,-10.08
2023-02-25T23:17:53.666Z,-10.21
2023-02-25T23:20:57.796Z,-9.99
2023-02-25T23:24:05.441Z,-9.57
2023-02-25T23:27:09.813Z,-10.63
2023-02-25T23:30:14.656Z,-9.61
2023-02-25T23:33:18.830Z,-8.05
2023-02-25T23:36:23.990Z,-7.58
2023-02-25T23:39:29.065Z,-7.18
2023-02-25T23:42:33.161Z,-8.09
2023-02-25T23:45:36.998Z,-9.16
2023-02-25T23:48:40.993Z,-9.38
2023-02-25T23:51:47.141Z,-9.84
2023-02-25T23:54:51.984Z,-9.94
2023-02-25T23:57:56.926Z,-10.42
